sensor_id;sensor_type;location;lat;lon;timestamp;pressure;altitude;pressure_sealevel;temperature;humidity
32131;BME280;18639;50.716;7.086;2023-03-01T00:00:49;101700.84;;;-0.03;95.10
32131;BME280;18639;50.716;7.086;2023-03-01T00:03:15;101693.22;;;-0.05;95.13
32131;BME280;18639;50.716;7.086;2023-03-01T00:05:44;101705.94;;;0.03;94.83
32131;BME280;18639;50.716;7.086;2023-03-01T00:08:10;101710.16;;;-0.07;94.34
32131;BME280;18639;50.716;7.086;2023-03-01T00:10:35;101682.19;;;-0.23;95.39
32131;BME280;18639;50.716;7.086;2023-03-01T00:13:01;101714.41;;;-0.07;95.51
32131;BME280;18639;50.716;7.086;2023-03-01T00:15:26;101711.88;;;-0.06;95.65
32131;BME280;18639;50.716;7.086;2023-03-01T00:17:51;101674.56;;;-0.25;96.08
32131;BME280;18639;50.716;7.086;2023-03-01T00:20:16;101678.78;;;-0.39;96.19
32131;BME280;18639;50.716;7.086;2023-03-01T00:22:42;101711.00;;;-0.06;95.90
32131;BME280;18639;50.716;7.086;2023-03-01T00:25:07;101709.28;;;-0.10;95.43
32131;BME280;18639;50.716;7.086;2023-03-01T00:27:32;101690.66;;;-0.15;96.57
32131;BME280;18639;50.716;7.086;2023-03-01T00:29:58;101616.13;;;-0.70;96.04
32131;BME280;18639;50.716;7.086;2023-03-01T00:32:23;101635.59;;;-0.57;96.47
32131;BME280;18639;50.716;7.086;2023-03-01T00:34:48;101707.63;;;-0.17;96.96
32131;BME280;18639;50.716;7.086;2023-03-01T00:37:22;101692.34;;;-0.28;96.49
32131;BME280;18639;50.716;7.086;2023-03-01T00:39:48;101722.00;;;-0.19;96.39
32131;BME280;18639;50.716;7.086;2023-03-01T00:42:14;101698.25;;;-0.35;96.38
32131;BME280;18639;50.716;7.086;2023-03-01T00:44:39;101702.50;;;-0.32;96.58
32131;BME280;18639;50.716;7.086;2023-03-01T00:47:04;101701.63;;;-0.40;96.81
32131;BME280;18639;50.716;7.086;2023-03-01T00:49:30;101692.31;;;-0.54;96.93
32131;BME280;18639;50.716;7.086;2023-03-01T00:51:55;101692.28;;;-0.52;97.38
32131;BME280;18639;50.716;7.086;2023-03-01T00:54:20;101678.75;;;-0.65;97.63
32131;BME280;18639;50.716;7.086;2023-03-01T00:56:45;101653.28;;;-0.80;97.79
32131;BME280;18639;50.716;7.086;2023-03-01T00:59:11;101710.94;;;-0.43;97.59
32131;BME280;18639;50.716;7.086;2023-03-01T01:01:36;101706.69;;;-0.48;98.39
32131;BME280;18639;50.716;7.086;2023-03-01T01:04:08;101612.69;;;-0.98;98.42
32131;BME280;18639;50.716;7.086;2023-03-01T01:06:36;101687.22;;;-0.54;98.29
32131;BME280;18639;50.716;7.086;2023-03-01T01:09:04;101644.00;;;-0.87;97.78
32131;BME280;18639;50.716;7.086;2023-03-01T01:11:30;101710.94;;;-0.36;98.41
32131;BME280;18639;50.716;7.086;2023-03-01T01:13:57;101705.88;;;-0.36;98.31
32131;BME280;18639;50.716;7.086;2023-03-01T01:16:24;101689.75;;;-0.48;98.01
32131;BME280;18639;50.716;7.086;2023-03-01T01:18:50;101677.03;;;-0.58;98.19
32131;BME280;18639;50.716;7.086;2023-03-01T01:21:18;101691.47;;;-0.47;98.50
32131;BME280;18639;50.716;7.086;2023-03-01T01:23:44;101683.84;;;-0.48;98.65
32131;BME280;18639;50.716;7.086;2023-03-01T01:26:16;101685.56;;;-0.49;99.15
32131;BME280;18639;50.716;7.086;2023-03-01T01:28:42;101665.22;;;-0.61;98.31
32131;BME280;18639;50.716;7.086;2023-03-01T01:31:07;101661.81;;;-0.63;98.75
32131;BME280;18639;50.716;7.086;2023-03-01T01:33:33;101669.47;;;-0.54;98.81
32131;BME280;18639;50.716;7.086;2023-03-01T01:35:59;101671.97;;;-0.66;99.11
32131;BME280;18639;50.716;7.086;2023-03-01T01:38:24;101653.34;;;-0.68;99.30
32131;BME280;18639;50.716;7.086;2023-03-01T01:40:50;101664.34;;;-0.63;99.46
32131;BME280;18639;50.716;7.086;2023-03-01T01:43:20;101646.59;;;-0.66;99.93
32131;BME280;18639;50.716;7.086;2023-03-01T01:45:46;101631.34;;;-0.72;99.45
32131;BME280;18639;50.716;7.086;2023-03-01T01:48:18;101646.56;;;-0.69;99.59
32131;BME280;18639;50.716;7.086;2023-03-01T01:50:44;101660.13;;;-0.67;100.00
32131;BME280;18639;50.716;7.086;2023-03-01T01:53:16;101651.66;;;-0.72;100.00
32131;BME280;18639;50.716;7.086;2023-03-01T01:55:45;101649.13;;;-0.70;100.00
32131;BME280;18639;50.716;7.086;2023-03-01T01:58:15;101648.25;;;-0.72;100.00
32131;BME280;18639;50.716;7.086;2023-03-01T02:00:43;101643.16;;;-0.78;100.00
32131;BME280;18639;50.716;7.086;2023-03-01T02:03:11;101638.94;;;-0.78;100.00
32131;BME280;18639;50.716;7.086;2023-03-01T02:05:51;101649.94;;;-0.73;100.00
32131;BME280;18639;50.716;7.086;2023-03-01T02:08:20;101655.84;;;-0.74;100.00
32131;BME280;18639;50.716;7.086;2023-03-01T02:10:48;101638.94;;;-0.81;100.00
32131;BME280;18639;50.716;7.086;2023-03-01T02:13:14;101643.19;;;-0.75;100.00
32131;BME280;18639;50.716;7.086;2023-03-01T02:15:40;101650.78;;;-0.77;100.00
32131;BME280;18639;50.716;7.086;2023-03-01T02:18:07;101605.88;;;-1.08;100.00
32131;BME280;18639;50.716;7.086;2023-03-01T02:20:56;101649.94;;;-0.79;100.00
32131;BME280;18639;50.716;7.086;2023-03-01T02:23:27;101617.69;;;-1.19;100.00
32131;BME280;18639;50.716;7.086;2023-03-01T02:26:00;101649.91;;;-0.88;100.00
32131;BME280;18639;50.716;7.086;2023-03-01T02:28:36;101638.06;;;-0.88;100.00
32131;BME280;18639;50.716;7.086;2023-03-01T02:31:04;101626.19;;;-1.01;100.00
32131;BME280;18639;50.716;7.086;2023-03-01T02:33:49;101634.69;;;-0.93;100.00
32131;BME280;18639;50.716;7.086;2023-03-01T02:36:18;101619.44;;;-0.97;100.00
32131;BME280;18639;50.716;7.086;2023-03-01T02:38:45;101629.59;;;-0.97;100.00
32131;BME280;18639;50.716;7.086;2023-03-01T02:41:13;101627.88;;;-0.95;100.00
32131;BME280;18639;50.716;7.086;2023-03-01T02:43:40;101624.53;;;-0.97;100.00
32131;BME280;18639;50.716;7.086;2023-03-01T02:46:08;101591.47;;;-1.17;100.00
32131;BME280;18639;50.716;7.086;2023-03-01T02:48:49;101602.50;;;-1.13;100.00
32131;BME280;18639;50.716;7.086;2023-03-01T02:51:56;101616.88;;;-1.05;100.00
32131;BME280;18639;50.716;7.086;2023-03-01T02:54:49;101623.63;;;-1.05;100.00
32131;BME280;18639;50.716;7.086;2023-03-01T02:57:17;101617.69;;;-1.10;100.00
32131;BME280;18639;50.716;7.086;2023-03-01T02:59:43;101608.38;;;-1.19;100.00
32131;BME280;18639;50.716;7.086;2023-03-01T03:02:27;101617.69;;;-1.12;100.00
32131;BME280;18639;50.716;7.086;2023-03-01T03:05:09;101605.00;;;-1.18;100.00
32131;BME280;18639;50.716;7.086;2023-03-01T03:07:36;101561.00;;;-1.35;100.00
32131;BME280;18639;50.716;7.086;2023-03-01T03:10:04;101594.00;;;-1.17;100.00
32131;BME280;18639;50.716;7.086;2023-03-01T03:12:30;101578.75;;;-1.26;100.00
32131;BME280;18639;50.716;7.086;2023-03-01T03:14:55;101601.63;;;-1.14;100.00
32131;BME280;18639;50.716;7.086;2023-03-01T03:17:20;101586.38;;;-1.21;100.00
32131;BME280;18639;50.716;7.086;2023-03-01T03:19:45;101597.38;;;-1.16;100.00
32131;BME280;18639;50.716;7.086;2023-03-01T03:22:12;101567.72;;;-1.43;100.00
32131;BME280;18639;50.716;7.086;2023-03-01T03:24:37;101592.28;;;-1.25;100.00
32131;BME280;18639;50.716;7.086;2023-03-01T03:27:06;101596.53;;;-1.24;100.00
32131;BME280;18639;50.716;7.086;2023-03-01T03:29:32;101584.66;;;-1.30;100.00
32131;BME280;18639;50.716;7.086;2023-03-01T03:31:57;101578.75;;;-1.34;100.00
32131;BME280;18639;50.716;7.086;2023-03-01T03:34:23;101575.34;;;-1.36;100.00
32131;BME280;18639;50.716;7.086;2023-03-01T03:36:53;101581.22;;;-1.43;100.00
32131;BME280;18639;50.716;7.086;2023-03-01T03:39:22;101571.97;;;-1.41;100.00
32131;BME280;18639;50.716;7.086;2023-03-01T03:41:48;101516.91;;;-1.75;100.00
32131;BME280;18639;50.716;7.086;2023-03-01T03:44:13;101592.25;;;-1.32;100.00
32131;BME280;18639;50.716;7.086;2023-03-01T03:46:38;101584.66;;;-1.35;100.00
32131;BME280;18639;50.716;7.086;2023-03-01T03:49:03;101555.88;;;-1.50;100.00
32131;BME280;18639;50.716;7.086;2023-03-01T03:51:29;101554.13;;;-1.59;100.00
32131;BME280;18639;50.716;7.086;2023-03-01T03:53:54;101581.22;;;-1.46;100.00
32131;BME280;18639;50.716;7.086;2023-03-01T03:56:19;101577.00;;;-1.47;100.00
32131;BME280;18639;50.716;7.086;2023-03-01T03:58:44;101584.63;;;-1.45;100.00
32131;BME280;18639;50.716;7.086;2023-03-01T04:01:10;101524.47;;;-1.87;100.00
32131;BME280;18639;50.716;7.086;2023-03-01T04:03:35;101578.66;;;-1.56;100.00
32131;BME280;18639;50.716;7.086;2023-03-01T04:06:01;101581.16;;;-1.55;100.00
32131;BME280;18639;50.716;7.086;2023-03-01T04:08:27;101543.03;;;-1.81;100.00
32131;BME280;18639;50.716;7.086;2023-03-01T04:10:57;101571.03;;;-1.61;100.00
32131;BME280;18639;50.716;7.086;2023-03-01T04:13:23;101549.03;;;-1.66;100.00
32131;BME280;18639;50.716;7.086;2023-03-01T04:15:51;101561.69;;;-1.65;100.00
32131;BME280;18639;50.716;7.086;2023-03-01T04:18:17;101555.78;;;-1.65;100.00
32131;BME280;18639;50.716;7.086;2023-03-01T04:20:44;101561.72;;;-1.62;100.00
32131;BME280;18639;50.716;7.086;2023-03-01T04:23:15;101561.72;;;-1.62;100.00
32131;BME280;18639;50.716;7.086;2023-03-01T04:28:23;101533.78;;;-1.82;100.00
32131;BME280;18639;50.716;7.086;2023-03-01T04:30:53;101550.69;;;-1.70;100.00
32131;BME280;18639;50.716;7.086;2023-03-01T04:33:19;101543.06;;;-1.78;100.00
32131;BME280;18639;50.716;7.086;2023-03-01T04:35:45;101571.81;;;-1.65;100.00
32131;BME280;18639;50.716;7.086;2023-03-01T04:38:10;101568.47;;;-1.67;100.00
32131;BME280;18639;50.716;7.086;2023-03-01T04:40:36;101575.22;;;-1.66;100.00
32131;BME280;18639;50.716;7.086;2023-03-01T04:43:03;101570.13;;;-1.69;100.00
32131;BME280;18639;50.716;7.086;2023-03-01T04:45:28;101520.13;;;-2.02;100.00
32131;BME280;18639;50.716;7.086;2023-03-01T04:47:53;101522.69;;;-1.96;100.00
32131;BME280;18639;50.716;7.086;2023-03-01T04:50:19;101545.59;;;-1.79;100.00
32131;BME280;18639;50.716;7.086;2023-03-01T04:52:46;101517.63;;;-2.00;100.00
32131;BME280;18639;50.716;7.086;2023-03-01T04:55:12;101547.28;;;-1.80;100.00
32131;BME280;18639;50.716;7.086;2023-03-01T04:57:38;101566.72;;;-1.74;100.00
32131;BME280;18639;50.716;7.086;2023-03-01T05:00:06;101559.09;;;-1.76;100.00
32131;BME280;18639;50.716;7.086;2023-03-01T05:02:56;101563.31;;;-1.79;100.00
32131;BME280;18639;50.716;7.086;2023-03-01T05:05:26;101559.94;;;-1.80;100.00
32131;BME280;18639;50.716;7.086;2023-03-01T05:07:53;101538.72;;;-1.97;100.00
32131;BME280;18639;50.716;7.086;2023-03-01T05:10:19;101537.91;;;-1.96;100.00
32131;BME280;18639;50.716;7.086;2023-03-01T05:12:44;101534.50;;;-1.99;100.00
32131;BME280;18639;50.716;7.086;2023-03-01T05:15:10;101554.00;;;-1.88;100.00
32131;BME280;18639;50.716;7.086;2023-03-01T05:17:35;101553.97;;;-1.94;100.00
32131;BME280;18639;50.716;7.086;2023-03-01T05:20:00;101541.25;;;-2.01;100.00
32131;BME280;18639;50.716;7.086;2023-03-01T05:22:26;101560.72;;;-1.91;100.00
32131;BME280;18639;50.716;7.086;2023-03-01T05:24:51;101538.69;;;-2.03;100.00
32131;BME280;18639;50.716;7.086;2023-03-01T05:27:19;101557.34;;;-1.93;100.00
32131;BME280;18639;50.716;7.086;2023-03-01T05:29:47;101560.72;;;-1.93;100.00
32131;BME280;18639;50.716;7.086;2023-03-01T05:32:12;101536.16;;;-2.04;100.00
32131;BME280;18639;50.716;7.086;2023-03-01T05:34:40;101559.00;;;-1.97;100.00
32131;BME280;18639;50.716;7.086;2023-03-01T05:37:05;101558.97;;;-2.01;100.00
32131;BME280;18639;50.716;7.086;2023-03-01T05:39:32;101558.13;;;-2.02;100.00
32131;BME280;18639;50.716;7.086;2023-03-01T05:42:00;101567.44;;;-1.99;100.00
32131;BME280;18639;50.716;7.086;2023-03-01T05:44:27;101542.00;;;-2.16;100.00
32131;BME280;18639;50.716;7.086;2023-03-01T05:46:52;101567.38;;;-2.02;100.00
32131;BME280;18639;50.716;7.086;2023-03-01T05:49:18;101569.94;;;-2.04;100.00
32131;BME280;18639;50.716;7.086;2023-03-01T05:51:50;101569.03;;;-2.07;100.00
32131;BME280;18639;50.716;7.086;2023-03-01T05:54:17;101574.97;;;-2.08;100.00
32131;BME280;18639;50.716;7.086;2023-03-01T05:56:43;101573.28;;;-2.09;100.00
32131;BME280;18639;50.716;7.086;2023-03-01T05:59:08;101540.19;;;-2.32;100.00
32131;BME280;18639;50.716;7.086;2023-03-01T06:01:35;101520.75;;;-2.35;100.00
32131;BME280;18639;50.716;7.086;2023-03-01T06:04:02;101425.91;;;-2.94;100.00
32131;BME280;18639;50.716;7.086;2023-03-01T06:06:28;101554.72;;;-2.08;100.00
32131;BME280;18639;50.716;7.086;2023-03-01T06:08:53;101530.94;;;-2.30;100.00
32131;BME280;18639;50.716;7.086;2023-03-01T06:11:19;101531.81;;;-2.24;100.00
32131;BME280;18639;50.716;7.086;2023-03-01T06:13:45;101511.47;;;-2.42;100.00
32131;BME280;18639;50.716;7.086;2023-03-01T06:16:10;101470.00;;;-2.59;100.00
32131;BME280;18639;50.716;7.086;2023-03-01T06:18:36;101490.34;;;-2.47;100.00
32131;BME280;18639;50.716;7.086;2023-03-01T06:21:02;101535.22;;;-2.17;100.00
32131;BME280;18639;50.716;7.086;2023-03-01T06:23:28;101502.16;;;-2.40;100.00
32131;BME280;18639;50.716;7.086;2023-03-01T06:25:53;101533.53;;;-2.20;100.00
32131;BME280;18639;50.716;7.086;2023-03-01T06:28:18;101535.25;;;-2.16;100.00
32131;BME280;18639;50.716;7.086;2023-03-01T06:30:44;101542.06;;;-2.05;100.00
32131;BME280;18639;50.716;7.086;2023-03-01T06:33:09;101442.06;;;-2.74;100.00
32131;BME280;18639;50.716;7.086;2023-03-01T06:35:35;101540.38;;;-2.09;100.00
32131;BME280;18639;50.716;7.086;2023-03-01T06:38:01;101514.09;;;-2.27;100.00
32131;BME280;18639;50.716;7.086;2023-03-01T06:40:27;101494.53;;;-2.49;100.00
32131;BME280;18639;50.716;7.086;2023-03-01T06:42:52;101530.22;;;-2.14;100.00
32131;BME280;18639;50.716;7.086;2023-03-01T06:45:20;101503.88;;;-2.42;100.00
32131;BME280;18639;50.716;7.086;2023-03-01T06:47:46;101493.72;;;-2.43;100.00
32131;BME280;18639;50.716;7.086;2023-03-01T06:50:12;101522.47;;;-2.34;100.00
32131;BME280;18639;50.716;7.086;2023-03-01T06:52:37;101546.22;;;-2.17;100.00
32131;BME280;18639;50.716;7.086;2023-03-01T06:55:03;101521.69;;;-2.27;100.00
32131;BME280;18639;50.716;7.086;2023-03-01T06:57:29;101542.03;;;-2.07;100.00
32131;BME280;18639;50.716;7.086;2023-03-01T06:59:55;101566.59;;;-1.98;100.00
32131;BME280;18639;50.716;7.086;2023-03-01T07:02:20;101538.63;;;-2.15;100.00
32131;BME280;18639;50.716;7.086;2023-03-01T07:04:45;101482.78;;;-2.42;100.00
32131;BME280;18639;50.716;7.086;2023-03-01T07:07:11;101474.41;;;-2.28;100.00
32131;BME280;18639;50.716;7.086;2023-03-01T07:09:36;101545.53;;;-1.87;100.00
32131;BME280;18639;50.716;7.086;2023-03-01T07:12:01;101545.63;;;-1.73;100.00
32131;BME280;18639;50.716;7.086;2023-03-01T07:14:27;101538.03;;;-1.73;100.00
32131;BME280;18639;50.716;7.086;2023-03-01T07:16:53;101506.72;;;-1.87;100.00
32131;BME280;18639;50.716;7.086;2023-03-01T07:19:19;101544.81;;;-1.60;100.00
32131;BME280;18639;50.716;7.086;2023-03-01T07:21:44;101507.59;;;-1.76;100.00
32131;BME280;18639;50.716;7.086;2023-03-01T07:24:09;101488.19;;;-1.74;100.00
32131;BME280;18639;50.716;7.086;2023-03-01T07:26:35;101544.06;;;-1.38;100.00
32131;BME280;18639;50.716;7.086;2023-03-01T07:29:02;101537.34;;;-1.30;100.00
32131;BME280;18639;50.716;7.086;2023-03-01T07:31:28;101518.75;;;-1.30;100.00
32131;BME280;18639;50.716;7.086;2023-03-01T07:33:54;101528.94;;;-1.16;100.00
32131;BME280;18639;50.716;7.086;2023-03-01T07:36:20;101517.94;;;-1.15;100.00
32131;BME280;18639;50.716;7.086;2023-03-01T07:38:45;101528.13;;;-0.99;100.00
32131;BME280;18639;50.716;7.086;2023-03-01T07:41:10;101540.84;;;-0.62;100.00
32131;BME280;18639;50.716;7.086;2023-03-01T07:43:36;101449.50;;;-0.87;100.00
32131;BME280;18639;50.716;7.086;2023-03-01T07:46:01;101537.41;;;-0.10;100.00
32131;BME280;18639;50.716;7.086;2023-03-01T07:48:27;101509.50;;;-0.14;100.00
32131;BME280;18639;50.716;7.086;2023-03-01T07:50:53;101527.22;;;0.06;100.00
32131;BME280;18639;50.716;7.086;2023-03-01T07:53:18;101522.13;;;0.18;100.00
32131;BME280;18639;50.716;7.086;2023-03-01T07:55:44;101462.88;;;0.07;100.00
32131;BME280;18639;50.716;7.086;2023-03-01T07:58:09;101526.19;;;0.63;100.00
32131;BME280;18639;50.716;7.086;2023-03-01T08:00:34;101448.34;;;0.36;100.00
32131;BME280;18639;50.716;7.086;2023-03-01T08:03:00;101516.56;;;1.07;99.44
32131;BME280;18639;50.716;7.086;2023-03-01T08:05:28;101506.22;;;1.33;97.53
32131;BME280;18639;50.716;7.086;2023-03-01T08:07:54;101510.25;;;1.57;95.12
32131;BME280;18639;50.716;7.086;2023-03-01T08:10:20;101433.19;;;1.35;93.95
32131;BME280;18639;50.716;7.086;2023-03-01T08:12:45;101515.75;;;2.03;92.91
32131;BME280;18639;50.716;7.086;2023-03-01T08:15:11;101510.69;;;2.00;92.06
32131;BME280;18639;50.716;7.086;2023-03-01T08:17:36;101495.50;;;1.89;91.93
32131;BME280;18639;50.716;7.086;2023-03-01T08:20:01;101529.41;;;1.96;90.53
32131;BME280;18639;50.716;7.086;2023-03-01T08:22:28;101432.34;;;1.38;90.22
32131;BME280;18639;50.716;7.086;2023-03-01T08:24:53;101493.91;;;1.81;86.72
32131;BME280;18639;50.716;7.086;2023-03-01T08:27:20;101511.63;;;1.91;85.92
32131;BME280;18639;50.716;7.086;2023-03-01T08:29:46;101502.91;;;2.10;86.35
32131;BME280;18639;50.716;7.086;2023-03-01T08:32:11;101491.69;;;2.25;83.27
32131;BME280;18639;50.716;7.086;2023-03-01T08:34:36;101498.34;;;2.38;81.92
32131;BME280;18639;50.716;7.086;2023-03-01T08:37:02;101505.16;;;2.36;80.46
32131;BME280;18639;50.716;7.086;2023-03-01T08:39:27;101442.56;;;2.13;79.77
32131;BME280;18639;50.716;7.086;2023-03-01T08:41:53;101423.03;;;2.10;78.75
32131;BME280;18639;50.716;7.086;2023-03-01T08:44:22;101509.13;;;2.57;78.83
32131;BME280;18639;50.716;7.086;2023-03-01T08:46:48;101505.53;;;2.73;79.38
32131;BME280;18639;50.716;7.086;2023-03-01T08:49:17;101515.41;;;2.97;77.94
32131;BME280;18639;50.716;7.086;2023-03-01T08:51:44;101486.06;;;3.23;77.06
32131;BME280;18639;50.716;7.086;2023-03-01T08:54:12;101441.03;;;3.66;72.12
32131;BME280;18639;50.716;7.086;2023-03-01T08:56:37;101477.22;;;4.73;69.99
32131;BME280;18639;50.716;7.086;2023-03-01T08:59:04;101500.19;;;5.82;66.98
32131;BME280;18639;50.716;7.086;2023-03-01T09:01:29;101470.78;;;6.54;61.83
32131;BME280;18639;50.716;7.086;2023-03-01T09:03:55;101486.06;;;7.39;56.79
32131;BME280;18639;50.716;7.086;2023-03-01T09:06:20;101484.69;;;8.28;54.70
32131;BME280;18639;50.716;7.086;2023-03-01T09:08:47;101490.53;;;9.00;50.59
32131;BME280;18639;50.716;7.086;2023-03-01T09:11:16;101487.28;;;9.97;48.05
32131;BME280;18639;50.716;7.086;2023-03-01T09:13:41;101472.13;;;10.47;44.72
32131;BME280;18639;50.716;7.086;2023-03-01T09:16:08;101478.53;;;11.12;43.96
32131;BME280;18639;50.716;7.086;2023-03-01T09:18:34;101467.50;;;10.73;42.30
32131;BME280;18639;50.716;7.086;2023-03-01T09:21:02;101457.06;;;11.27;42.70
32131;BME280;18639;50.716;7.086;2023-03-01T09:23:33;101458.69;;;11.64;42.81
32131;BME280;18639;50.716;7.086;2023-03-01T09:25:58;101463.16;;;11.61;40.96
32131;BME280;18639;50.716;7.086;2023-03-01T09:28:23;101425.22;;;12.41;40.94
32131;BME280;18639;50.716;7.086;2023-03-01T09:30:53;101452.44;;;12.95;39.86
32131;BME280;18639;50.716;7.086;2023-03-01T09:33:18;101425.88;;;12.76;38.79
32131;BME280;18639;50.716;7.086;2023-03-01T09:35:43;101402.31;;;12.65;39.11
32131;BME280;18639;50.716;7.086;2023-03-01T09:38:12;101435.53;;;13.34;38.81
32131;BME280;18639;50.716;7.086;2023-03-01T09:40:43;101448.66;;;13.75;37.34
32131;BME280;18639;50.716;7.086;2023-03-01T09:43:18;101424.22;;;13.35;36.91
32131;BME280;18639;50.716;7.086;2023-03-01T09:45:45;101436.31;;;13.20;37.73
32131;BME280;18639;50.716;7.086;2023-03-01T09:48:17;101443.53;;;13.59;36.66
32131;BME280;18639;50.716;7.086;2023-03-01T09:50:44;101392.88;;;13.24;35.93
32131;BME280;18639;50.716;7.086;2023-03-01T09:53:18;101434.69;;;13.19;37.17
32131;BME280;18639;50.716;7.086;2023-03-01T09:56:11;101407.97;;;11.93;37.96
32131;BME280;18639;50.716;7.086;2023-03-01T10:01:51;101426.88;;;11.95;39.38
32131;BME280;18639;50.716;7.086;2023-03-01T10:04:45;101423.69;;;11.90;37.85
32131;BME280;18639;50.716;7.086;2023-03-01T10:07:26;101419.19;;;12.09;38.65
32131;BME280;18639;50.716;7.086;2023-03-01T10:09:53;101388.78;;;11.64;38.48
32131;BME280;18639;50.716;7.086;2023-03-01T10:12:22;101422.34;;;11.49;39.82
32131;BME280;18639;50.716;7.086;2023-03-01T10:15:04;101419.81;;;11.81;39.96
32131;BME280;18639;50.716;7.086;2023-03-01T10:17:36;101415.53;;;10.79;39.54
32131;BME280;18639;50.716;7.086;2023-03-01T10:23:10;101370.34;;;10.86;40.27
32131;BME280;18639;50.716;7.086;2023-03-01T10:25:44;101390.66;;;10.40;40.87
32131;BME280;18639;50.716;7.086;2023-03-01T10:31:03;101395.78;;;10.95;40.97
32131;BME280;18639;50.716;7.086;2023-03-01T10:33:31;101374.59;;;11.21;40.70
32131;BME280;18639;50.716;7.086;2023-03-01T10:35:57;101362.69;;;11.34;40.69
32131;BME280;18639;50.716;7.086;2023-03-01T10:38:23;101380.84;;;11.00;40.73
32131;BME280;18639;50.716;7.086;2023-03-01T10:40:57;101391.66;;;11.25;39.69
32131;BME280;18639;50.716;7.086;2023-03-01T10:43:54;101386.16;;;10.63;40.30
32131;BME280;18639;50.716;7.086;2023-03-01T10:46:28;101390.81;;;10.54;41.06
32131;BME280;18639;50.716;7.086;2023-03-01T10:49:15;101365.56;;;10.42;41.70
32131;BME280;18639;50.716;7.086;2023-03-01T10:51:43;101304.44;;;10.24;41.82
32131;BME280;18639;50.716;7.086;2023-03-01T10:56:50;101361.22;;;9.09;43.69
32131;BME280;18639;50.716;7.086;2023-03-01T10:59:22;101293.13;;;7.65;45.02
32131;BME280;18639;50.716;7.086;2023-03-01T11:02:23;101346.06;;;7.94;46.85
32131;BME280;18639;50.716;7.086;2023-03-01T11:07:26;101338.88;;;7.57;48.11
32131;BME280;18639;50.716;7.086;2023-03-01T11:09:51;101353.41;;;7.58;47.82
32131;BME280;18639;50.716;7.086;2023-03-01T11:12:17;101341.16;;;7.41;48.15
32131;BME280;18639;50.716;7.086;2023-03-01T11:14:47;101332.31;;;7.25;47.42
32131;BME280;18639;50.716;7.086;2023-03-01T11:17:30;101326.56;;;7.17;47.75
32131;BME280;18639;50.716;7.086;2023-03-01T11:22:57;101300.47;;;6.80;48.20
32131;BME280;18639;50.716;7.086;2023-03-01T11:25:26;101327.50;;;6.65;49.81
32131;BME280;18639;50.716;7.086;2023-03-01T11:27:54;101316.91;;;6.74;49.60
32131;BME280;18639;50.716;7.086;2023-03-01T11:30:29;101322.84;;;6.50;49.96
32131;BME280;18639;50.716;7.086;2023-03-01T11:33:12;101332.59;;;6.12;50.24
32131;BME280;18639;50.716;7.086;2023-03-01T11:36:07;101327.81;;;6.00;50.63
32131;BME280;18639;50.716;7.086;2023-03-01T11:38:36;101301.81;;;6.12;49.87
32131;BME280;18639;50.716;7.086;2023-03-01T11:41:12;101313.69;;;6.41;50.83
32131;BME280;18639;50.716;7.086;2023-03-01T11:44:00;101288.88;;;6.42;49.31
32131;BME280;18639;50.716;7.086;2023-03-01T11:49:49;101302.69;;;6.38;50.72
32131;BME280;18639;50.716;7.086;2023-03-01T11:52:58;101301.72;;;6.42;49.60
32131;BME280;18639;50.716;7.086;2023-03-01T11:55:57;101285.03;;;6.55;50.47
32131;BME280;18639;50.716;7.086;2023-03-01T11:58:40;101280.91;;;6.75;50.28
32131;BME280;18639;50.716;7.086;2023-03-01T12:06:55;101255.81;;;6.84;49.67
32131;BME280;18639;50.716;7.086;2023-03-01T12:09:41;101258.44;;;6.82;49.56
32131;BME280;18639;50.716;7.086;2023-03-01T12:28:39;101244.88;;;7.02;48.59
32131;BME280;18639;50.716;7.086;2023-03-01T12:31:22;101219.09;;;6.80;47.20
32131;BME280;18639;50.716;7.086;2023-03-01T12:34:11;101228.19;;;7.13;47.12
32131;BME280;18639;50.716;7.086;2023-03-01T12:42:18;101215.78;;;7.25;48.17
32131;BME280;18639;50.716;7.086;2023-03-01T12:47:58;101214.66;;;6.85;48.50
32131;BME280;18639;50.716;7.086;2023-03-01T12:50:40;101201.63;;;6.90;48.79
32131;BME280;18639;50.716;7.086;2023-03-01T12:53:31;101197.34;;;6.90;48.77
32131;BME280;18639;50.716;7.086;2023-03-01T12:56:01;101219.09;;;7.05;47.47
32131;BME280;18639;50.716;7.086;2023-03-01T12:58:46;101186.13;;;6.68;46.63
32131;BME280;18639;50.716;7.086;2023-03-01T13:07:11;101201.44;;;7.19;48.05
32131;BME280;18639;50.716;7.086;2023-03-01T13:09:41;101195.44;;;7.18;47.55
32131;BME280;18639;50.716;7.086;2023-03-01T13:15:32;101183.44;;;7.42;46.11
32131;BME280;18639;50.716;7.086;2023-03-01T13:20:47;101180.13;;;7.39;45.61
32131;BME280;18639;50.716;7.086;2023-03-01T13:26:14;101175.69;;;7.21;45.17
32131;BME280;18639;50.716;7.086;2023-03-01T13:28:54;101151.09;;;7.13;45.50
32131;BME280;18639;50.716;7.086;2023-03-01T13:34:02;101162.56;;;7.27;44.42
32131;BME280;18639;50.716;7.086;2023-03-01T13:49:48;101135.38;;;7.43;45.06
32131;BME280;18639;50.716;7.086;2023-03-01T13:55:14;101146.88;;;7.56;45.79
32131;BME280;18639;50.716;7.086;2023-03-01T13:57:45;101145.84;;;7.60;45.39
32131;BME280;18639;50.716;7.086;2023-03-01T14:00:43;101099.88;;;7.31;45.65
32131;BME280;18639;50.716;7.086;2023-03-01T14:03:15;101135.09;;;7.72;44.15
32131;BME280;18639;50.716;7.086;2023-03-01T14:05:43;101132.25;;;7.58;44.01
32131;BME280;18639;50.716;7.086;2023-03-01T14:08:23;101141.56;;;7.60;45.14
32131;BME280;18639;50.716;7.086;2023-03-01T14:13:59;101134.63;;;7.63;46.03
32131;BME280;18639;50.716;7.086;2023-03-01T14:16:49;101136.63;;;7.76;45.26
32131;BME280;18639;50.716;7.086;2023-03-01T14:19:25;101123.13;;;7.71;45.61
32131;BME280;18639;50.716;7.086;2023-03-01T14:24:48;101119.50;;;7.75;45.33
32131;BME280;18639;50.716;7.086;2023-03-01T14:27:14;101114.47;;;7.74;43.64
32131;BME280;18639;50.716;7.086;2023-03-01T14:29:40;101113.47;;;7.76;44.15
32131;BME280;18639;50.716;7.086;2023-03-01T14:32:19;101105.47;;;7.84;44.44